GLD1028 SBBV-TGPY
Flight info
| Callsign | GLD1028 |
|---|---|
| Flight time | 1h 54m |
| Altitude | 33000 |
| Route | ANLO1A ANLOL DCT ILNER DCT LOLER DCT KUMIX DCT TOBLA DCT ISAKU DCT POS DCT DUKLA DCT IMORO DCT |
| Aircraft | B738/M-SDFGIRY/S |
Departure
| Time | 2026-04-25 18:35 |
|---|---|
| Airport | Atlas Brasil Cantanhede International Airport (SBBV) |
Arrival
| Time | 2026-04-25 20:29 |
|---|---|
| Airport | Maurice Bishop International Airport (TGPY) |
| Time | Latitude | Longitude | Altitude | Speed | Heading |
|---|---|---|---|---|---|
| 2026-04-25 18:21 | 2.84165 | -60.69332 | 278 ft | 0 kts | 153° |
| 2026-04-25 18:23 | 2.84166 | -60.69332 | 278 ft | 2 kts | 153° |
| 2026-04-25 18:24 | 2.84178 | -60.69339 | 281 ft | 2 kts | 153° |
| 2026-04-25 18:24 | 2.84187 | -60.69343 | 278 ft | 0 kts | 153° |
| 2026-04-25 18:25 | 2.84198 | -60.69349 | 279 ft | 2 kts | 153° |
| 2026-04-25 18:25 | 2.84209 | -60.69355 | 279 ft | 2 kts | 139° |
| 2026-04-25 18:25 | 2.84217 | -60.69362 | 278 ft | 1 kts | 101° |
| 2026-04-25 18:25 | 2.84219 | -60.69364 | 278 ft | 0 kts | 61° |
| 2026-04-25 18:27 | 2.84235 | -60.69334 | 282 ft | 9 kts | 62° |
| 2026-04-25 18:27 | 2.84268 | -60.69272 | 278 ft | 10 kts | 62° |
| 2026-04-25 18:28 | 2.84320 | -60.69241 | 278 ft | 10 kts | 336° |
| 2026-04-25 18:28 | 2.84318 | -60.69294 | 280 ft | 8 kts | 239° |
| 2026-04-25 18:28 | 2.84291 | -60.69340 | 278 ft | 8 kts | 242° |
| 2026-04-25 18:29 | 2.84239 | -60.69439 | 282 ft | 10 kts | 242° |
| 2026-04-25 18:29 | 2.84205 | -60.69504 | 280 ft | 12 kts | 242° |
| 2026-04-25 18:30 | 2.84071 | -60.69761 | 278 ft | 15 kts | 242° |
| 2026-04-25 18:30 | 2.84025 | -60.69853 | 278 ft | 14 kts | 245° |
| 2026-04-25 18:30 | 2.83985 | -60.69942 | 279 ft | 14 kts | 245° |
| 2026-04-25 18:30 | 2.83965 | -60.70024 | 279 ft | 12 kts | 309° |
| 2026-04-25 18:31 | 2.83986 | -60.70038 | 279 ft | 0 kts | 329° |
| 2026-04-25 18:33 | 2.84002 | -60.70048 | 282 ft | 8 kts | 329° |
| 2026-04-25 18:33 | 2.84067 | -60.70079 | 282 ft | 11 kts | 352° |
| 2026-04-25 18:33 | 2.84102 | -60.70042 | 279 ft | 0 kts | 64° |
| 2026-04-25 18:34 | 2.84103 | -60.70039 | 279 ft | 4 kts | 64° |
| 2026-04-25 18:34 | 2.84226 | -60.69797 | 279 ft | 76 kts | 62° |
| 2026-04-25 18:34 | 2.84578 | -60.69117 | 279 ft | 141 kts | 62° |
| 2026-04-25 18:34 | 2.85091 | -60.68119 | 593 ft | 166 kts | 63° |
| 2026-04-25 18:35 | 2.85613 | -60.67116 | 1390 ft | 165 kts | 63° |
| 2026-04-25 18:35 | 2.86144 | -60.66100 | 2127 ft | 167 kts | 63° |
| 2026-04-25 18:35 | 2.86720 | -60.64995 | 2477 ft | 195 kts | 63° |
| 2026-04-25 18:35 | 2.87390 | -60.63709 | 2709 ft | 221 kts | 63° |
| 2026-04-25 18:36 | 2.88382 | -60.62444 | 2878 ft | 246 kts | 34° |
| 2026-04-25 18:36 | 2.90075 | -60.61966 | 3201 ft | 266 kts | 356° |
| 2026-04-25 18:36 | 2.91797 | -60.62628 | 3906 ft | 272 kts | 320° |
| 2026-04-25 18:36 | 2.93099 | -60.64008 | 4707 ft | 275 kts | 317° |
| 2026-04-25 18:37 | 2.94763 | -60.64935 | 5435 ft | 277 kts | 349° |
| 2026-04-25 18:37 | 2.96679 | -60.65188 | 6235 ft | 279 kts | 355° |
| 2026-04-25 18:37 | 2.98624 | -60.65378 | 6941 ft | 283 kts | 355° |
| 2026-04-25 18:37 | 3.00566 | -60.65580 | 7667 ft | 285 kts | 354° |
| 2026-04-25 18:38 | 3.02552 | -60.65806 | 8397 ft | 289 kts | 353° |
| 2026-04-25 18:38 | 3.04567 | -60.66053 | 9126 ft | 293 kts | 353° |
| 2026-04-25 18:38 | 3.06587 | -60.66314 | 9945 ft | 290 kts | 352° |
| 2026-04-25 18:38 | 3.08601 | -60.66585 | 10534 ft | 300 kts | 352° |
| 2026-04-25 18:39 | 3.10753 | -60.66881 | 10697 ft | 323 kts | 352° |
| 2026-04-25 18:39 | 3.13040 | -60.67202 | 11048 ft | 337 kts | 352° |
| 2026-04-25 18:39 | 3.15381 | -60.67534 | 11632 ft | 342 kts | 352° |
| 2026-04-25 18:39 | 3.17747 | -60.67872 | 12318 ft | 345 kts | 352° |
| 2026-04-25 18:40 | 3.20132 | -60.68215 | 13003 ft | 348 kts | 352° |
| 2026-04-25 18:40 | 3.22550 | -60.68563 | 13680 ft | 352 kts | 352° |
| 2026-04-25 18:40 | 3.24984 | -60.68914 | 14283 ft | 355 kts | 352° |
| 2026-04-25 18:40 | 3.27441 | -60.69269 | 14906 ft | 358 kts | 352° |
| 2026-04-25 18:41 | 3.29918 | -60.69627 | 15533 ft | 361 kts | 352° |
| 2026-04-25 18:41 | 3.32418 | -60.69989 | 16154 ft | 365 kts | 352° |
| 2026-04-25 18:41 | 3.34943 | -60.70354 | 16747 ft | 369 kts | 353° |
| 2026-04-25 18:41 | 3.37495 | -60.70723 | 17330 ft | 372 kts | 353° |
| 2026-04-25 18:42 | 3.40070 | -60.71095 | 17915 ft | 376 kts | 353° |
| 2026-04-25 18:42 | 3.40950 | -60.71222 | 18112 ft | 377 kts | 352° |
| 2026-04-25 18:42 | 3.45293 | -60.71850 | 18931 ft | 382 kts | 352° |
| 2026-04-25 18:42 | 3.47944 | -60.72233 | 19422 ft | 385 kts | 352° |
| 2026-04-25 18:43 | 3.50609 | -60.72619 | 19901 ft | 389 kts | 353° |
| 2026-04-25 18:43 | 3.53297 | -60.73007 | 20385 ft | 392 kts | 353° |
| 2026-04-25 18:43 | 3.56006 | -60.73399 | 20868 ft | 394 kts | 353° |
| 2026-04-25 18:43 | 3.58696 | -60.73788 | 21328 ft | 398 kts | 353° |
| 2026-04-25 18:44 | 3.61446 | -60.74186 | 21800 ft | 400 kts | 353° |
| 2026-04-25 18:44 | 3.64213 | -60.74587 | 22254 ft | 403 kts | 353° |
| 2026-04-25 18:44 | 3.67005 | -60.74991 | 22667 ft | 407 kts | 353° |
| 2026-04-25 18:44 | 3.69823 | -60.75399 | 23086 ft | 411 kts | 353° |
| 2026-04-25 18:45 | 3.72662 | -60.75810 | 23516 ft | 413 kts | 352° |
| 2026-04-25 18:45 | 3.75521 | -60.76223 | 23867 ft | 416 kts | 353° |
| 2026-04-25 18:45 | 3.78392 | -60.76639 | 24236 ft | 418 kts | 352° |
| 2026-04-25 18:45 | 3.81281 | -60.77057 | 24630 ft | 419 kts | 353° |
| 2026-04-25 18:46 | 3.84177 | -60.77477 | 24980 ft | 422 kts | 353° |
| 2026-04-25 18:46 | 3.87087 | -60.77895 | 25367 ft | 423 kts | 353° |
| 2026-04-25 18:46 | 3.89980 | -60.78236 | 25742 ft | 424 kts | 355° |
| 2026-04-25 18:46 | 3.92925 | -60.78511 | 26086 ft | 426 kts | 356° |
| 2026-04-25 18:47 | 3.95884 | -60.78762 | 26413 ft | 429 kts | 356° |
| 2026-04-25 18:47 | 3.98876 | -60.79012 | 26761 ft | 431 kts | 356° |
| 2026-04-25 18:47 | 4.01871 | -60.79267 | 27088 ft | 434 kts | 356° |
| 2026-04-25 18:47 | 4.04885 | -60.79530 | 27410 ft | 436 kts | 356° |
| 2026-04-25 18:48 | 4.07908 | -60.79801 | 27742 ft | 438 kts | 356° |
| 2026-04-25 18:48 | 4.10957 | -60.80077 | 28073 ft | 440 kts | 356° |
| 2026-04-25 18:48 | 4.14014 | -60.80356 | 28403 ft | 442 kts | 356° |
| 2026-04-25 18:48 | 4.17080 | -60.80637 | 28711 ft | 444 kts | 356° |
| 2026-04-25 18:49 | 4.20165 | -60.80920 | 29012 ft | 446 kts | 356° |
| 2026-04-25 18:49 | 4.23266 | -60.81204 | 29307 ft | 448 kts | 356° |
| 2026-04-25 18:49 | 4.26384 | -60.81489 | 29630 ft | 450 kts | 356° |
| 2026-04-25 18:49 | 4.29505 | -60.81775 | 30016 ft | 449 kts | 356° |
| 2026-04-25 18:50 | 4.32612 | -60.82059 | 30431 ft | 447 kts | 356° |
| 2026-04-25 18:50 | 4.35705 | -60.82342 | 30727 ft | 449 kts | 356° |
| 2026-04-25 18:50 | 4.38831 | -60.82628 | 30967 ft | 451 kts | 356° |
| 2026-04-25 18:50 | 4.41954 | -60.82914 | 31335 ft | 449 kts | 356° |
| 2026-04-25 18:51 | 4.45025 | -60.83195 | 31753 ft | 448 kts | 356° |
| 2026-04-25 18:51 | 4.46078 | -60.83292 | 31872 ft | 448 kts | 356° |
| 2026-04-25 18:51 | 4.51255 | -60.83765 | 32380 ft | 449 kts | 356° |
| 2026-04-25 18:51 | 4.54362 | -60.84050 | 32750 ft | 448 kts | 356° |
| 2026-04-25 18:52 | 4.57472 | -60.84334 | 32923 ft | 451 kts | 356° |
| 2026-04-25 18:52 | 4.60610 | -60.84621 | 32921 ft | 453 kts | 356° |
| 2026-04-25 18:52 | 4.66868 | -60.85195 | 32918 ft | 447 kts | 356° |
| 2026-04-25 18:53 | 4.73036 | -60.85762 | 32935 ft | 450 kts | 356° |
| 2026-04-25 18:53 | 4.79331 | -60.86349 | 32949 ft | 453 kts | 356° |
| 2026-04-25 18:54 | 4.88742 | -60.87230 | 32947 ft | 456 kts | 356° |
| 2026-04-25 18:55 | 4.95060 | -60.87821 | 32936 ft | 456 kts | 356° |
| 2026-04-25 18:55 | 5.01371 | -60.88411 | 32944 ft | 454 kts | 355° |
| 2026-04-25 18:56 | 5.07663 | -60.89000 | 32935 ft | 452 kts | 356° |
| 2026-04-25 18:56 | 5.13903 | -60.89583 | 32931 ft | 449 kts | 356° |
| 2026-04-25 18:57 | 5.20115 | -60.90164 | 32934 ft | 447 kts | 356° |
| 2026-04-25 18:57 | 5.26272 | -60.90740 | 32937 ft | 446 kts | 356° |
| 2026-04-25 18:58 | 5.32475 | -60.91320 | 32955 ft | 450 kts | 355° |
| 2026-04-25 18:58 | 5.41866 | -60.92238 | 32928 ft | 451 kts | 353° |
| 2026-04-25 18:59 | 5.54157 | -60.94581 | 32929 ft | 448 kts | 349° |
| 2026-04-25 19:00 | 5.63287 | -60.96386 | 32926 ft | 447 kts | 350° |
| 2026-04-25 19:01 | 5.72460 | -60.98142 | 32923 ft | 448 kts | 350° |
| 2026-04-25 19:01 | 5.78580 | -60.99309 | 32931 ft | 448 kts | 350° |
| 2026-04-25 19:02 | 5.87801 | -61.01068 | 32926 ft | 450 kts | 350° |
| 2026-04-25 19:03 | 5.94965 | -61.02437 | 32926 ft | 451 kts | 350° |
| 2026-04-25 19:03 | 6.03216 | -61.04014 | 32912 ft | 452 kts | 350° |
| 2026-04-25 19:04 | 6.11444 | -61.05587 | 32924 ft | 452 kts | 350° |
| 2026-04-25 19:05 | 6.23784 | -61.07947 | 32898 ft | 451 kts | 350° |
| 2026-04-25 19:06 | 6.29935 | -61.09123 | 32896 ft | 449 kts | 350° |
| 2026-04-25 19:06 | 6.39098 | -61.10877 | 32883 ft | 448 kts | 350° |
| 2026-04-25 19:07 | 6.48275 | -61.12634 | 32876 ft | 448 kts | 350° |
| 2026-04-25 19:08 | 6.57456 | -61.14391 | 32876 ft | 448 kts | 350° |
| 2026-04-25 19:09 | 6.68017 | -61.16415 | 32871 ft | 448 kts | 349° |
| 2026-04-25 19:28 | 6.69246 | -61.16651 | 32862 ft | 448 kts | 349° |
| 2026-04-25 19:29 | 6.75279 | -61.17808 | 32871 ft | 448 kts | 350° |
| 2026-04-25 19:29 | 6.81423 | -61.18985 | 32861 ft | 449 kts | 350° |
| 2026-04-25 19:30 | 6.87569 | -61.20163 | 32861 ft | 449 kts | 350° |
| 2026-04-25 19:30 | 6.93708 | -61.21341 | 32856 ft | 449 kts | 350° |
| 2026-04-25 19:31 | 6.99818 | -61.22513 | 32855 ft | 449 kts | 349° |
| 2026-04-25 19:31 | 7.05966 | -61.23693 | 32852 ft | 450 kts | 349° |
| 2026-04-25 19:32 | 7.12125 | -61.24875 | 32856 ft | 450 kts | 349° |
| 2026-04-25 19:32 | 7.17246 | -61.25858 | 32854 ft | 450 kts | 349° |
| 2026-04-25 19:33 | 7.24445 | -61.27241 | 32856 ft | 451 kts | 349° |
| 2026-04-25 19:33 | 7.30599 | -61.28423 | 32856 ft | 451 kts | 349° |
| 2026-04-25 19:34 | 7.36770 | -61.29609 | 32854 ft | 451 kts | 349° |
| 2026-04-25 19:34 | 7.42936 | -61.30794 | 32857 ft | 451 kts | 349° |
| 2026-04-25 19:35 | 7.49064 | -61.31973 | 32857 ft | 451 kts | 349° |
| 2026-04-25 19:35 | 7.55235 | -61.33160 | 32860 ft | 451 kts | 349° |
| 2026-04-25 19:36 | 7.61407 | -61.34347 | 32864 ft | 451 kts | 349° |
| 2026-04-25 19:36 | 7.67575 | -61.35534 | 32863 ft | 451 kts | 349° |
| 2026-04-25 19:37 | 7.73746 | -61.36722 | 32864 ft | 451 kts | 349° |
| 2026-04-25 19:37 | 7.79912 | -61.37910 | 32859 ft | 452 kts | 349° |
| 2026-04-25 19:38 | 7.86094 | -61.39101 | 32863 ft | 452 kts | 349° |
| 2026-04-25 19:38 | 7.92276 | -61.40292 | 32868 ft | 452 kts | 349° |
| 2026-04-25 19:39 | 7.98455 | -61.41483 | 32864 ft | 452 kts | 349° |
| 2026-04-25 19:39 | 8.04639 | -61.42675 | 32858 ft | 452 kts | 349° |
| 2026-04-25 19:40 | 8.10891 | -61.43333 | 32865 ft | 452 kts | 357° |
| 2026-04-25 19:40 | 8.17137 | -61.43588 | 32860 ft | 452 kts | 358° |
| 2026-04-25 19:41 | 8.23415 | -61.43862 | 32867 ft | 452 kts | 357° |
| 2026-04-25 19:41 | 8.27623 | -61.44076 | 32858 ft | 452 kts | 357° |
| 2026-04-25 19:42 | 8.35987 | -61.44529 | 32859 ft | 451 kts | 357° |
| 2026-04-25 19:42 | 8.42257 | -61.44871 | 32862 ft | 451 kts | 357° |
| 2026-04-25 19:43 | 8.48525 | -61.45211 | 32863 ft | 451 kts | 357° |
| 2026-04-25 19:43 | 8.54745 | -61.45547 | 32858 ft | 450 kts | 357° |
| 2026-04-25 19:44 | 8.61006 | -61.45886 | 32859 ft | 450 kts | 357° |
| 2026-04-25 19:44 | 8.67263 | -61.45958 | 32868 ft | 450 kts | 1° |
| 2026-04-25 19:45 | 8.73527 | -61.45692 | 32862 ft | 450 kts | 2° |
| 2026-04-25 19:45 | 8.79793 | -61.45408 | 32865 ft | 450 kts | 2° |
| 2026-04-25 19:46 | 8.86067 | -61.45154 | 32867 ft | 451 kts | 2° |
| 2026-04-25 19:46 | 8.92337 | -61.44919 | 32878 ft | 451 kts | 2° |
| 2026-04-25 19:47 | 8.98564 | -61.44690 | 32882 ft | 451 kts | 2° |
| 2026-04-25 19:47 | 9.04836 | -61.44460 | 32871 ft | 451 kts | 2° |
| 2026-04-25 19:48 | 9.11121 | -61.44228 | 32877 ft | 451 kts | 2° |
| 2026-04-25 19:48 | 9.17399 | -61.43996 | 32877 ft | 452 kts | 2° |
| 2026-04-25 19:49 | 9.21600 | -61.43841 | 32878 ft | 452 kts | 2° |
| 2026-04-25 19:49 | 9.29975 | -61.43531 | 32878 ft | 452 kts | 2° |
| 2026-04-25 19:50 | 9.39412 | -61.43181 | 32885 ft | 452 kts | 1° |
| 2026-04-25 19:51 | 9.45666 | -61.42950 | 32880 ft | 452 kts | 1° |
| 2026-04-25 19:51 | 9.51961 | -61.42717 | 32882 ft | 452 kts | 1° |
| 2026-04-25 19:52 | 9.58252 | -61.42484 | 32899 ft | 452 kts | 1° |
| 2026-04-25 19:52 | 9.64542 | -61.42250 | 32891 ft | 452 kts | 1° |
| 2026-04-25 19:53 | 9.70842 | -61.42017 | 32891 ft | 452 kts | 1° |
| 2026-04-25 19:53 | 9.77127 | -61.41784 | 32906 ft | 453 kts | 1° |
| 2026-04-25 19:54 | 9.83430 | -61.41550 | 32899 ft | 453 kts | 1° |
| 2026-04-25 19:54 | 9.89688 | -61.41317 | 32891 ft | 452 kts | 1° |
| 2026-04-25 19:55 | 9.95917 | -61.41086 | 32608 ft | 443 kts | 1° |
| 2026-04-25 19:55 | 9.99006 | -61.40971 | 32299 ft | 436 kts | 1° |
| 2026-04-25 19:55 | 10.01993 | -61.40860 | 31907 ft | 433 kts | 1° |
| 2026-04-25 19:55 | 10.04993 | -61.40748 | 31534 ft | 430 kts | 1° |
| 2026-04-25 19:56 | 10.07967 | -61.40638 | 31158 ft | 427 kts | 2° |
| 2026-04-25 19:56 | 10.10933 | -61.40528 | 30777 ft | 425 kts | 2° |
| 2026-04-25 19:56 | 10.13884 | -61.40418 | 30374 ft | 423 kts | 2° |
| 2026-04-25 19:56 | 10.16823 | -61.40309 | 29991 ft | 422 kts | 2° |
| 2026-04-25 19:57 | 10.19750 | -61.40200 | 29544 ft | 420 kts | 2° |
| 2026-04-25 19:57 | 10.22658 | -61.40092 | 29129 ft | 417 kts | 2° |
| 2026-04-25 19:57 | 10.25547 | -61.39984 | 28728 ft | 414 kts | 2° |
| 2026-04-25 19:57 | 10.28410 | -61.39878 | 28311 ft | 411 kts | 2° |
| 2026-04-25 19:58 | 10.31261 | -61.39772 | 27913 ft | 407 kts | 2° |
| 2026-04-25 19:58 | 10.34079 | -61.39667 | 27521 ft | 404 kts | 2° |
| 2026-04-25 19:58 | 10.36883 | -61.39562 | 27138 ft | 402 kts | 2° |
| 2026-04-25 19:58 | 10.39669 | -61.39458 | 26752 ft | 399 kts | 2° |
| 2026-04-25 19:59 | 10.42436 | -61.39355 | 26380 ft | 397 kts | 2° |
| 2026-04-25 19:59 | 10.45191 | -61.39262 | 25987 ft | 394 kts | 0° |
| 2026-04-25 19:59 | 10.47910 | -61.39476 | 25621 ft | 391 kts | 349° |
| 2026-04-25 19:59 | 10.50543 | -61.40098 | 25305 ft | 387 kts | 346° |
| 2026-04-25 20:00 | 10.53148 | -61.40778 | 24937 ft | 385 kts | 345° |
| 2026-04-25 20:00 | 10.53994 | -61.41002 | 24813 ft | 385 kts | 345° |
| 2026-04-25 20:00 | 10.58320 | -61.42147 | 24192 ft | 383 kts | 345° |
| 2026-04-25 20:00 | 10.60906 | -61.42824 | 23804 ft | 382 kts | 346° |
| 2026-04-25 20:01 | 10.66047 | -61.44151 | 22980 ft | 380 kts | 346° |
| 2026-04-25 20:01 | 10.68599 | -61.44804 | 22570 ft | 377 kts | 346° |
| 2026-04-25 20:01 | 10.71137 | -61.45453 | 22194 ft | 374 kts | 346° |
| 2026-04-25 20:02 | 10.73656 | -61.46096 | 21821 ft | 372 kts | 346° |
| 2026-04-25 20:02 | 10.75307 | -61.46518 | 21571 ft | 370 kts | 346° |
| 2026-04-25 20:02 | 10.78611 | -61.47360 | 21081 ft | 367 kts | 346° |
| 2026-04-25 20:02 | 10.81080 | -61.47991 | 20715 ft | 365 kts | 347° |
| 2026-04-25 20:03 | 10.83538 | -61.48618 | 20353 ft | 362 kts | 347° |
| 2026-04-25 20:03 | 10.85976 | -61.49241 | 19993 ft | 360 kts | 347° |
| 2026-04-25 20:03 | 10.87585 | -61.49652 | 19750 ft | 359 kts | 347° |
| 2026-04-25 20:03 | 10.90007 | -61.50271 | 19382 ft | 358 kts | 347° |
| 2026-04-25 20:04 | 10.92415 | -61.50886 | 19013 ft | 357 kts | 347° |
| 2026-04-25 20:04 | 10.94829 | -61.51503 | 18646 ft | 356 kts | 346° |
| 2026-04-25 20:04 | 10.97225 | -61.52115 | 18271 ft | 355 kts | 346° |
| 2026-04-25 20:04 | 10.99622 | -61.52728 | 17875 ft | 354 kts | 346° |
| 2026-04-25 20:05 | 11.02010 | -61.53338 | 17499 ft | 352 kts | 346° |
| 2026-04-25 20:05 | 11.04377 | -61.53943 | 17135 ft | 350 kts | 346° |
| 2026-04-25 20:05 | 11.06728 | -61.54545 | 16776 ft | 347 kts | 346° |
| 2026-04-25 20:05 | 11.09066 | -61.55143 | 16419 ft | 345 kts | 346° |
| 2026-04-25 20:06 | 11.11390 | -61.55737 | 16076 ft | 343 kts | 346° |
| 2026-04-25 20:06 | 11.13682 | -61.56324 | 15882 ft | 336 kts | 346° |
| 2026-04-25 20:06 | 11.15935 | -61.56901 | 15625 ft | 331 kts | 346° |
| 2026-04-25 20:06 | 11.18166 | -61.57472 | 15274 ft | 331 kts | 346° |
| 2026-04-25 20:07 | 11.20397 | -61.58043 | 14926 ft | 330 kts | 346° |
| 2026-04-25 20:07 | 11.22620 | -61.58612 | 14610 ft | 328 kts | 346° |
| 2026-04-25 20:07 | 11.24801 | -61.59171 | 14300 ft | 326 kts | 346° |
| 2026-04-25 20:07 | 11.26999 | -61.59734 | 13994 ft | 325 kts | 346° |
| 2026-04-25 20:08 | 11.29185 | -61.60294 | 13682 ft | 323 kts | 346° |
| 2026-04-25 20:08 | 11.31369 | -61.60854 | 13293 ft | 323 kts | 346° |
| 2026-04-25 20:08 | 11.33549 | -61.61412 | 12960 ft | 321 kts | 346° |
| 2026-04-25 20:08 | 11.35705 | -61.61964 | 12670 ft | 318 kts | 346° |
| 2026-04-25 20:09 | 11.37858 | -61.62516 | 12298 ft | 318 kts | 346° |
| 2026-04-25 20:09 | 11.40001 | -61.63064 | 11937 ft | 318 kts | 346° |
| 2026-04-25 20:09 | 11.42137 | -61.63608 | 11662 ft | 315 kts | 346° |
| 2026-04-25 20:09 | 11.44249 | -61.64147 | 11345 ft | 313 kts | 346° |
| 2026-04-25 20:10 | 11.46365 | -61.64688 | 10997 ft | 313 kts | 346° |
| 2026-04-25 20:10 | 11.48451 | -61.65220 | 10839 ft | 305 kts | 346° |
| 2026-04-25 20:10 | 11.50489 | -61.65742 | 10672 ft | 299 kts | 345° |
| 2026-04-25 20:10 | 11.52371 | -61.66594 | 10351 ft | 298 kts | 323° |
| 2026-04-25 20:11 | 11.54010 | -61.67883 | 10085 ft | 297 kts | 321° |
| 2026-04-25 20:11 | 11.55619 | -61.69190 | 9807 ft | 295 kts | 320° |
| 2026-04-25 20:11 | 11.57215 | -61.70490 | 9526 ft | 293 kts | 321° |
| 2026-04-25 20:11 | 11.58817 | -61.71788 | 9207 ft | 293 kts | 321° |
| 2026-04-25 20:12 | 11.60395 | -61.73061 | 9094 ft | 283 kts | 321° |
| 2026-04-25 20:12 | 11.61901 | -61.74270 | 8980 ft | 269 kts | 321° |
| 2026-04-25 20:12 | 11.63334 | -61.75418 | 8870 ft | 255 kts | 321° |
| 2026-04-25 20:12 | 11.64242 | -61.76144 | 8801 ft | 246 kts | 321° |
| 2026-04-25 20:13 | 11.66005 | -61.77554 | 8412 ft | 241 kts | 321° |
| 2026-04-25 20:13 | 11.67317 | -61.78603 | 8077 ft | 239 kts | 321° |
| 2026-04-25 20:13 | 11.68628 | -61.79651 | 7730 ft | 239 kts | 321° |
| 2026-04-25 20:13 | 11.69929 | -61.80690 | 7399 ft | 237 kts | 321° |
| 2026-04-25 20:14 | 11.71228 | -61.81728 | 7064 ft | 237 kts | 321° |
| 2026-04-25 20:14 | 11.72522 | -61.82762 | 6752 ft | 235 kts | 321° |
| 2026-04-25 20:14 | 11.73805 | -61.83787 | 6412 ft | 235 kts | 321° |
| 2026-04-25 20:14 | 11.75090 | -61.84813 | 6086 ft | 233 kts | 322° |
| 2026-04-25 20:15 | 11.76359 | -61.85828 | 5754 ft | 232 kts | 322° |
| 2026-04-25 20:15 | 11.77642 | -61.86852 | 5214 ft | 240 kts | 322° |
| 2026-04-25 20:15 | 11.79023 | -61.87956 | 4347 ft | 263 kts | 322° |
| 2026-04-25 20:15 | 11.80450 | -61.89095 | 4020 ft | 257 kts | 322° |
| 2026-04-25 20:16 | 11.81848 | -61.90214 | 3728 ft | 251 kts | 322° |
| 2026-04-25 20:16 | 11.83196 | -61.91292 | 3597 ft | 243 kts | 322° |
| 2026-04-25 20:16 | 11.84521 | -61.92351 | 3526 ft | 240 kts | 322° |
| 2026-04-25 20:16 | 11.85802 | -61.93375 | 3423 ft | 233 kts | 322° |
| 2026-04-25 20:17 | 11.87059 | -61.94380 | 3347 ft | 228 kts | 322° |
| 2026-04-25 20:17 | 11.88319 | -61.95387 | 3292 ft | 232 kts | 322° |
| 2026-04-25 20:17 | 11.89596 | -61.96408 | 3176 ft | 235 kts | 322° |
| 2026-04-25 20:17 | 11.90932 | -61.97427 | 3063 ft | 245 kts | 332° |
| 2026-04-25 20:18 | 11.92568 | -61.97847 | 2986 ft | 244 kts | 7° |
| 2026-04-25 20:18 | 11.94121 | -61.97306 | 2966 ft | 232 kts | 39° |
| 2026-04-25 20:18 | 11.95122 | -61.96114 | 2995 ft | 215 kts | 67° |
| 2026-04-25 20:18 | 11.95454 | -61.94659 | 2987 ft | 210 kts | 93° |
| 2026-04-25 20:19 | 11.95142 | -61.93228 | 2995 ft | 206 kts | 116° |
| 2026-04-25 20:19 | 11.94313 | -61.92046 | 2993 ft | 205 kts | 138° |
| 2026-04-25 20:19 | 11.93230 | -61.91139 | 3001 ft | 204 kts | 141° |
| 2026-04-25 20:19 | 11.92124 | -61.90224 | 2996 ft | 205 kts | 140° |
| 2026-04-25 20:20 | 11.91018 | -61.89310 | 2998 ft | 205 kts | 140° |
| 2026-04-25 20:20 | 11.89909 | -61.88395 | 3003 ft | 204 kts | 140° |
| 2026-04-25 20:20 | 11.88787 | -61.87503 | 2988 ft | 204 kts | 148° |
| 2026-04-25 20:20 | 11.87434 | -61.87116 | 3008 ft | 206 kts | 176° |
| 2026-04-25 20:21 | 11.86003 | -61.87376 | 2998 ft | 214 kts | 201° |
| 2026-04-25 20:21 | 11.84797 | -61.88298 | 3005 ft | 221 kts | 230° |
| 2026-04-25 20:21 | 11.84157 | -61.89709 | 3000 ft | 226 kts | 258° |
| 2026-04-25 20:21 | 11.84265 | -61.91302 | 3000 ft | 229 kts | 290° |
| 2026-04-25 20:22 | 11.85106 | -61.92665 | 3009 ft | 228 kts | 316° |
| 2026-04-25 20:22 | 11.85900 | -61.93362 | 3009 ft | 227 kts | 322° |
| 2026-04-25 20:22 | 11.87550 | -61.94714 | 3004 ft | 228 kts | 322° |
| 2026-04-25 20:22 | 11.88791 | -61.95732 | 3011 ft | 229 kts | 322° |
| 2026-04-25 20:23 | 11.90003 | -61.96730 | 3012 ft | 218 kts | 321° |
| 2026-04-25 20:23 | 11.91245 | -61.97531 | 2858 ft | 209 kts | 349° |
| 2026-04-25 20:23 | 11.92645 | -61.97447 | 2783 ft | 204 kts | 13° |
| 2026-04-25 20:23 | 11.94058 | -61.97265 | 2610 ft | 207 kts | 7° |
| 2026-04-25 20:24 | 11.95498 | -61.97183 | 2460 ft | 200 kts | 5° |
| 2026-04-25 20:24 | 11.96844 | -61.97141 | 2328 ft | 192 kts | 4° |
| 2026-04-25 20:24 | 11.98150 | -61.97116 | 2174 ft | 184 kts | 3° |
| 2026-04-25 20:24 | 11.99403 | -61.96913 | 2017 ft | 176 kts | 30° |
| 2026-04-25 20:25 | 12.00235 | -61.96104 | 1987 ft | 164 kts | 66° |
| 2026-04-25 20:25 | 12.00453 | -61.94982 | 1977 ft | 160 kts | 91° |
| 2026-04-25 20:25 | 12.00460 | -61.93851 | 1907 ft | 157 kts | 91° |
| 2026-04-25 20:25 | 12.00463 | -61.92737 | 1815 ft | 159 kts | 92° |
| 2026-04-25 20:26 | 12.00461 | -61.91582 | 1736 ft | 161 kts | 92° |
| 2026-04-25 20:26 | 12.00455 | -61.90472 | 1708 ft | 156 kts | 91° |
| 2026-04-25 20:26 | 12.00450 | -61.89367 | 1712 ft | 155 kts | 92° |
| 2026-04-25 20:26 | 12.00446 | -61.88261 | 1666 ft | 157 kts | 92° |
| 2026-04-25 20:27 | 12.00442 | -61.87144 | 1459 ft | 156 kts | 92° |
| 2026-04-25 20:27 | 12.00438 | -61.86041 | 1247 ft | 156 kts | 91° |
| 2026-04-25 20:27 | 12.00434 | -61.84945 | 1069 ft | 153 kts | 91° |
| 2026-04-25 20:27 | 12.00431 | -61.83844 | 874 ft | 156 kts | 92° |
| 2026-04-25 20:28 | 12.00427 | -61.82740 | 635 ft | 154 kts | 91° |
| 2026-04-25 20:28 | 12.00422 | -61.81664 | 478 ft | 152 kts | 91° |
| 2026-04-25 20:28 | 12.00427 | -61.80611 | 180 ft | 142 kts | 93° |
| 2026-04-25 20:28 | 12.00418 | -61.79658 | 25 ft | 124 kts | 94° |
| 2026-04-25 20:29 | 12.00411 | -61.78933 | 28 ft | 75 kts | 91° |
| 2026-04-25 20:29 | 12.00411 | -61.78629 | 29 ft | 17 kts | 80° |
| 2026-04-25 20:29 | 12.00498 | -61.78601 | 26 ft | 14 kts | 359° |
| 2026-04-25 20:29 | 12.00506 | -61.78602 | 26 ft | 0 kts | 359° |
| 2026-04-25 20:30 | 12.00522 | -61.78602 | 26 ft | 5 kts | 360° |
| 2026-04-25 20:30 | 12.00565 | -61.78594 | 29 ft | 7 kts | 32° |
| 2026-04-25 20:30 | 12.00589 | -61.78553 | 27 ft | 7 kts | 69° |
| 2026-04-25 20:30 | 12.00627 | -61.78536 | 28 ft | 7 kts | 353° |
| 2026-04-25 20:31 | 12.00657 | -61.78537 | 28 ft | 0 kts | 0° |